Main page
METAR-TAF:

METAR-TAF

Airports :

Persian Gulf Airport

Asaluyeh, Iran

latitude: 27-22-46N, longitude: 52-44-15E, elevation: 8 m

Current weather observation

The report was made 6 hours and 18 minutes ago, at 15:00 UTC
Wind 10 kt from the West/Northwest
Temperature 35°C
Humidity 63%
Pressure 992 hPa
Visibility: 6000 m

METAR: OIBP 051500Z 30010KT 6000 NSC 35/27 Q0991 A2929

Time: 01:48 (21:18 UTC)

Forecast

The report was made 1 hour and 18 minutes ago, at 20:00 UTC
Forecast valid from 05 at 21 UTC to 06 at 06 UTC
Wind 6 kt from the West/Northwest
Visibility: 8000 m
Temporary
from 06 at 03 UTC to 06 at 06 UTC
Visibility: 5000 m
haze

TAF: OIBP 052000Z 0521/0606 30006KT 8000 NSC TEMPO 0603/0606 5000 HZ

Weather observations and forecasts of more than 4000 airports (METAR and TAF reports).

The available stations are represented by yellow and red dots on the map.

Hover mouse over dot to see the name of the station.

Then click to see weather observations and forecasts.

To change the map : click on the green buttons with a black cross to zoom in, on the green button with a dash to zoom out, or on the green arrows for adjacent maps.


METAR-TAF: